Time;durP1;ratioP1;P1;durP2;ratioP2;P2;SDS_P1;SDS_P2;PMS_P1;PMS_P2;Temp;Humidity;BMP_temperature;BMP_pressure;BME280_temperature;BME280_humidity;BME280_pressure;Samples;Min_cycle;Max_cycle;Signal;HPM_P1;HPM_P2
2020/12/12 00:00:56;;;;;;;21.83;13.95;;;2.00;83.10;;;;;;5055115;28;20065;-88
2020/12/12 00:03:22;;;;;;;19.65;13.82;;;2.00;83.20;;;;;;5055136;28;20467;-81
2020/12/12 00:05:47;;;;;;;20.65;13.90;;;2.00;83.10;;;;;;5054465;28;20531;-76
2020/12/12 00:08:13;;;;;;;20.23;13.25;;;2.00;83.10;;;;;;5036274;28;20384;-77
2020/12/12 00:10:39;;;;;;;18.83;12.90;;;2.00;83.00;;;;;;5053984;28;20036;-77
2020/12/12 00:13:08;;;;;;;19.15;13.13;;;2.00;82.90;;;;;;5053976;28;20029;-77
2020/12/12 00:15:34;;;;;;;18.63;13.60;;;2.10;82.60;;;;;;5036103;28;20024;-76
2020/12/12 00:18:00;;;;;;;20.75;13.77;;;2.00;82.80;;;;;;5032954;28;20045;-76
2020/12/12 00:20:26;;;;;;;18.15;11.98;;;2.00;83.00;;;;;;5032884;28;20018;-75
2020/12/12 00:22:51;;;;;;;18.85;13.63;;;1.90;83.10;;;;;;5034086;28;20018;-77
2020/12/12 00:25:17;;;;;;;18.17;12.68;;;1.90;83.20;;;;;;5034004;28;20026;-76
2020/12/12 00:27:43;;;;;;;22.80;13.73;;;2.00;83.00;;;;;;5033939;28;20041;-76
2020/12/12 00:30:08;;;;;;;33.60;16.70;;;2.00;83.00;;;;;;5033817;28;20076;-75
2020/12/12 00:32:34;;;;;;;20.95;13.40;;;1.90;83.30;;;;;;5033919;28;20056;-76
2020/12/12 00:35:00;;;;;;;18.25;12.43;;;2.00;83.20;;;;;;5032299;28;20022;-76
2020/12/12 00:37:25;;;;;;;20.33;12.70;;;1.90;83.30;;;;;;5015433;28;20021;-77
2020/12/12 00:39:51;;;;;;;18.88;12.80;;;1.90;83.40;;;;;;5033552;28;20100;-77
2020/12/12 00:42:17;;;;;;;19.50;12.77;;;2.00;83.20;;;;;;5015765;28;20028;-77
2020/12/12 00:44:43;;;;;;;19.92;12.68;;;2.00;83.20;;;;;;5032065;28;20514;-77
2020/12/12 00:47:08;;;;;;;18.70;11.98;;;2.00;83.10;;;;;;5032510;28;20029;-77
2020/12/12 00:49:34;;;;;;;18.92;12.80;;;2.00;83.10;;;;;;5033452;28;20474;-77
2020/12/12 00:52:00;;;;;;;19.60;12.68;;;2.10;83.20;;;;;;5031841;28;20499;-77
2020/12/12 00:54:26;;;;;;;18.27;12.90;;;2.10;83.10;;;;;;5033278;28;20018;-76
2020/12/12 00:56:51;;;;;;;20.27;13.23;;;2.10;83.10;;;;;;5031972;28;20112;-75
2020/12/12 00:59:18;;;;;;;21.13;14.02;;;2.20;82.90;;;;;;5033142;28;20104;-75
2020/12/12 01:01:46;;;;;;;23.25;14.77;;;2.20;82.80;;;;;;5033050;28;20117;-75
2020/12/12 01:04:12;;;;;;;20.73;14.10;;;2.20;82.90;;;;;;5033278;28;20044;-75
2020/12/12 01:06:38;;;;;;;19.40;13.63;;;2.20;83.00;;;;;;5031838;28;20025;-76
2020/12/12 01:09:04;;;;;;;19.42;12.77;;;2.20;82.90;;;;;;5033014;28;20086;-75
2020/12/12 01:11:29;;;;;;;17.85;11.80;;;2.20;82.90;;;;;;5048077;28;20072;-76
2020/12/12 01:13:55;;;;;;;16.70;11.25;;;2.20;83.00;;;;;;5031438;28;20033;-76
2020/12/12 01:16:21;;;;;;;19.88;12.13;;;2.10;83.20;;;;;;5039165;28;20475;-76
2020/12/12 01:18:46;;;;;;;18.08;11.98;;;2.10;83.40;;;;;;5052852;28;20029;-76
2020/12/12 01:21:16;;;;;;;15.05;10.68;;;2.10;83.60;;;;;;5034851;28;20464;-77
2020/12/12 01:23:42;;;;;;;19.20;11.05;;;2.10;83.60;;;;;;5052590;28;20025;-76
2020/12/12 01:26:08;;;;;;;17.65;10.77;;;2.10;84.00;;;;;;5052630;28;20033;-77
2020/12/12 01:28:35;;;;;;;17.02;10.73;;;2.00;84.40;;;;;;5034890;28;20431;-76
2020/12/12 01:31:01;;;;;;;19.17;11.43;;;2.00;84.30;;;;;;5052526;28;20025;-76
2020/12/12 01:33:27;;;;;;;18.17;12.32;;;2.00;84.50;;;;;;5034841;28;20021;-76
2020/12/12 01:35:53;;;;;;;17.42;11.55;;;2.00;84.60;;;;;;5052486;28;20036;-76
2020/12/12 01:38:18;;;;;;;19.52;12.73;;;2.00;84.60;;;;;;5052325;28;20402;-76
2020/12/12 01:40:44;;;;;;;19.10;12.35;;;2.10;84.70;;;;;;5034544;28;20120;-76
2020/12/12 01:43:11;;;;;;;17.30;11.63;;;2.20;84.40;;;;;;5052445;28;20490;-77
2020/12/12 01:45:37;;;;;;;20.55;12.73;;;2.10;84.30;;;;;;5052415;28;20100;-77
2020/12/12 01:48:04;;;;;;;17.67;11.48;;;2.10;84.40;;;;;;5034613;28;20025;-75
2020/12/12 01:50:30;;;;;;;17.42;12.30;;;2.10;84.40;;;;;;5052289;28;20033;-76
2020/12/12 01:52:57;;;;;;;17.67;11.45;;;2.10;84.40;;;;;;5034498;28;20017;-76
2020/12/12 01:55:23;;;;;;;16.55;11.38;;;2.20;84.40;;;;;;5034464;28;20052;-76
2020/12/12 01:57:52;;;;;;;18.38;12.38;;;2.20;84.00;;;;;;5051854;28;20059;-76
2020/12/12 02:00:19;;;;;;;18.30;12.18;;;2.20;83.90;;;;;;5052288;28;20017;-77
2020/12/12 02:02:49;;;;;;;17.92;12.07;;;2.30;84.00;;;;;;5034492;28;20149;-77
2020/12/12 02:05:38;;;;;;;16.52;11.73;;;2.30;83.90;;;;;;5052282;28;20025;-77
2020/12/12 02:08:16;;;;;;;18.17;12.05;;;2.20;84.20;;;;;;5052149;28;20029;-76
2020/12/12 02:10:43;;;;;;;17.98;12.50;;;2.20;84.10;;;;;;5052163;28;20041;-76
2020/12/12 02:13:10;;;;;;;16.52;11.68;;;2.20;84.30;;;;;;5052159;28;20028;-77
2020/12/12 02:15:36;;;;;;;17.70;12.38;;;2.10;84.30;;;;;;5051990;28;20028;-76
2020/12/12 02:18:04;;;;;;;17.23;11.90;;;2.10;84.40;;;;;;5051880;28;20033;-76
2020/12/12 02:20:30;;;;;;;20.55;11.98;;;2.20;84.30;;;;;;5052031;28;20426;-76
2020/12/12 02:22:56;;;;;;;16.80;11.32;;;2.30;84.20;;;;;;5034200;28;20029;-76
2020/12/12 02:25:23;;;;;;;18.00;11.77;;;2.30;84.00;;;;;;5052040;28;20028;-76
2020/12/12 02:27:50;;;;;;;17.23;11.15;;;2.30;84.10;;;;;;5052053;28;20066;-76
2020/12/12 02:30:16;;;;;;;17.35;10.93;;;2.30;84.00;;;;;;5051737;28;20033;-77
2020/12/12 02:32:42;;;;;;;17.17;10.82;;;2.40;83.90;;;;;;5051928;28;20036;-77
2020/12/12 02:35:08;;;;;;;15.85;10.77;;;2.40;83.60;;;;;;5052037;28;20025;-76
2020/12/12 02:37:34;;;;;;;15.95;11.10;;;2.50;83.70;;;;;;5051888;28;20552;-76
2020/12/12 02:39:59;;;;;;;15.57;10.23;;;2.50;83.30;;;;;;5051981;28;20506;-77
2020/12/12 02:42:25;;;;;;;13.98;9.60;;;2.40;83.50;;;;;;5051764;28;20412;-77
2020/12/12 02:44:52;;;;;;;14.52;9.65;;;2.50;83.30;;;;;;5033860;28;20032;-76
2020/12/12 02:47:19;;;;;;;14.38;9.43;;;2.50;83.00;;;;;;5033947;28;20032;-77
2020/12/12 02:49:45;;;;;;;13.60;9.18;;;2.50;83.00;;;;;;5051961;28;20033;-77
2020/12/12 02:52:11;;;;;;;11.57;8.80;;;2.50;82.90;;;;;;5052044;28;20021;-77
2020/12/12 02:54:36;;;;;;;12.88;9.05;;;2.50;82.80;;;;;;5051936;28;20426;-77
2020/12/12 02:57:02;;;;;;;13.25;9.40;;;2.50;82.80;;;;;;5051686;28;20104;-77
2020/12/12 02:59:28;;;;;;;11.43;8.20;;;2.50;82.80;;;;;;5051655;28;20052;-77
2020/12/12 03:01:53;;;;;;;11.23;8.35;;;2.50;82.80;;;;;;5051579;28;20067;-77
2020/12/12 03:04:19;;;;;;;12.88;9.02;;;2.50;82.70;;;;;;5046539;22;20048;-77
2020/12/12 03:06:45;;;;;;;12.88;8.82;;;2.50;82.60;;;;;;5071974;28;20033;-77
2020/12/12 03:09:10;;;;;;;11.70;7.80;;;2.60;82.50;;;;;;5071797;28;20052;-77
2020/12/12 03:11:36;;;;;;;13.77;8.63;;;2.60;82.50;;;;;;5074489;28;20037;-78
2020/12/12 03:14:02;;;;;;;12.10;8.82;;;2.60;82.50;;;;;;5075133;28;20104;-76
2020/12/12 03:16:28;;;;;;;13.80;9.77;;;2.60;82.70;;;;;;5057172;28;20075;-76
2020/12/12 03:18:54;;;;;;;12.32;9.30;;;2.60;82.70;;;;;;5057211;28;20063;-77
2020/12/12 03:21:19;;;;;;;14.63;9.25;;;2.60;82.70;;;;;;5075165;28;20024;-77
2020/12/12 03:23:45;;;;;;;13.70;8.52;;;2.60;82.70;;;;;;5074996;28;20032;-77
2020/12/12 03:26:11;;;;;;;12.73;8.88;;;2.60;82.70;;;;;;5075080;28;20039;-77
2020/12/12 03:28:36;;;;;;;13.98;9.75;;;2.60;82.70;;;;;;5074933;28;20494;-77
2020/12/12 03:31:02;;;;;;;14.30;9.15;;;2.60;82.70;;;;;;5074716;28;20126;-77
2020/12/12 03:33:28;;;;;;;13.32;8.38;;;2.60;82.80;;;;;;5074914;28;20016;-76
2020/12/12 03:35:53;;;;;;;12.98;9.13;;;2.60;82.80;;;;;;5074764;28;20494;-76
2020/12/12 03:38:19;;;;;;;15.55;9.95;;;2.60;82.70;;;;;;5074720;28;20459;-76
2020/12/12 03:40:45;;;;;;;12.02;8.68;;;2.70;82.80;;;;;;5074778;28;20028;-76
2020/12/12 03:43:10;;;;;;;16.85;10.35;;;2.60;82.70;;;;;;5074670;28;20028;-75
2020/12/12 03:45:36;;;;;;;15.35;9.82;;;2.70;82.80;;;;;;5074457;28;20024;-74
2020/12/12 03:48:02;;;;;;;12.55;9.27;;;2.70;82.70;;;;;;5074555;28;20107;-74
2020/12/12 03:50:27;;;;;;;15.23;9.25;;;2.70;82.60;;;;;;5074558;28;20115;-76
2020/12/12 03:52:54;;;;;;;14.23;9.93;;;2.70;82.70;;;;;;5056561;28;20028;-75
2020/12/12 03:55:20;;;;;;;14.15;9.55;;;2.70;82.60;;;;;;5074524;28;20095;-76
2020/12/12 03:57:46;;;;;;;12.45;9.55;;;2.80;82.70;;;;;;5074189;28;20039;-76
2020/12/12 04:00:12;;;;;;;16.33;10.15;;;2.70;82.60;;;;;;5074235;28;20028;-76
2020/12/12 04:02:37;;;;;;;13.73;9.48;;;2.80;82.70;;;;;;5074438;28;20021;-77
2020/12/12 04:05:03;;;;;;;13.75;10.30;;;2.80;82.60;;;;;;5056188;28;20044;-77
2020/12/12 04:07:29;;;;;;;15.70;10.57;;;2.80;82.50;;;;;;5074234;28;20028;-77
2020/12/12 04:09:54;;;;;;;13.95;9.68;;;2.80;82.50;;;;;;5074042;28;20475;-76
2020/12/12 04:12:20;;;;;;;14.10;10.48;;;2.80;82.60;;;;;;5074051;28;20085;-77
2020/12/12 04:14:45;;;;;;;16.63;11.00;;;2.80;82.80;;;;;;5073900;28;20502;-77
2020/12/12 04:17:11;;;;;;;13.80;10.52;;;2.70;83.10;;;;;;5074024;28;20043;-77
2020/12/12 04:19:37;;;;;;;17.60;11.82;;;2.80;83.10;;;;;;5073934;28;20047;-77
2020/12/12 04:22:03;;;;;;;14.43;10.57;;;2.80;83.10;;;;;;5073601;28;20025;-77
2020/12/12 04:24:29;;;;;;;17.65;11.68;;;2.80;83.00;;;;;;5073977;28;20206;-77
2020/12/12 04:26:54;;;;;;;17.60;11.88;;;2.80;82.90;;;;;;5073909;28;20055;-77
2020/12/12 04:29:20;;;;;;;18.48;12.70;;;2.90;82.90;;;;;;5055709;28;20027;-76
2020/12/12 04:31:46;;;;;;;21.55;12.50;;;2.90;83.00;;;;;;5073904;28;20062;-77
2020/12/12 04:34:11;;;;;;;18.63;12.40;;;3.00;83.30;;;;;;5055950;28;20013;-77
2020/12/12 04:36:37;;;;;;;16.98;12.18;;;2.90;83.00;;;;;;5073710;28;20031;-77
2020/12/12 04:39:03;;;;;;;16.98;11.98;;;2.90;83.10;;;;;;5055703;28;20025;-77
2020/12/12 04:41:31;;;;;;;18.83;13.35;;;3.00;82.90;;;;;;5073621;28;20028;-78
2020/12/12 04:43:57;;;;;;;18.73;13.30;;;3.00;82.90;;;;;;5073591;28;20486;-77
2020/12/12 04:46:22;;;;;;;17.15;12.93;;;3.00;83.00;;;;;;5073730;28;20028;-77
2020/12/12 04:48:48;;;;;;;17.27;12.65;;;3.00;83.10;;;;;;5073476;28;20589;-76
2020/12/12 04:51:15;;;;;;;17.63;12.57;;;2.90;83.10;;;;;;5073400;28;20044;-76
2020/12/12 04:53:41;;;;;;;19.15;13.27;;;2.90;83.30;;;;;;5071561;28;20073;-78
2020/12/12 04:56:08;;;;;;;16.98;12.88;;;2.90;83.30;;;;;;5072889;28;20036;-77
2020/12/12 04:58:38;;;;;;;18.75;13.02;;;2.90;83.40;;;;;;5073185;28;20433;-77
2020/12/12 05:01:04;;;;;;;16.90;12.38;;;2.90;83.40;;;;;;5055579;28;20025;-76
2020/12/12 05:03:32;;;;;;;17.58;12.65;;;2.90;83.40;;;;;;5073203;28;20440;-76
2020/12/12 05:05:58;;;;;;;17.55;12.55;;;2.90;83.30;;;;;;5055047;28;20499;-76
2020/12/12 05:08:23;;;;;;;19.50;13.75;;;2.90;83.40;;;;;;5073220;28;20094;-77
2020/12/12 05:10:51;;;;;;;19.85;13.68;;;2.90;83.40;;;;;;5054860;28;20131;-76
2020/12/12 05:13:20;;;;;;;17.60;12.73;;;2.90;83.20;;;;;;5073038;28;20564;-77
2020/12/12 05:15:47;;;;;;;18.17;13.45;;;2.90;83.20;;;;;;5052515;28;20032;-76
2020/12/12 05:18:13;;;;;;;17.48;13.23;;;2.90;83.30;;;;;;5071971;28;20158;-76
2020/12/12 05:20:39;;;;;;;18.02;13.30;;;2.90;83.30;;;;;;5054911;28;20111;-77
2020/12/12 05:23:15;;;;;;;17.48;12.68;;;2.90;83.30;;;;;;5054817;28;20063;-76
2020/12/12 05:25:42;;;;;;;17.77;13.07;;;2.90;83.40;;;;;;5072382;28;20081;-77
2020/12/12 05:28:10;;;;;;;18.45;13.60;;;2.90;83.50;;;;;;5072570;28;20040;-77
2020/12/12 05:30:45;;;;;;;19.60;13.05;;;2.80;83.50;;;;;;5072557;28;20392;-76
2020/12/12 05:33:13;;;;;;;17.65;14.15;;;2.80;83.60;;;;;;5071977;28;20020;-77
2020/12/12 05:35:39;;;;;;;19.73;14.45;;;2.80;83.60;;;;;;5072455;28;20173;-77
2020/12/12 05:38:09;;;;;;;17.95;13.60;;;2.80;83.80;;;;;;5072491;28;20542;-77
2020/12/12 05:40:36;;;;;;;18.58;14.75;;;2.80;83.80;;;;;;5072614;28;20029;-76
2020/12/12 05:43:10;;;;;;;16.75;12.82;;;2.80;83.80;;;;;;5072443;28;20091;-77
2020/12/12 05:45:38;;;;;;;16.73;12.60;;;2.80;83.80;;;;;;5072479;28;20070;-77
2020/12/12 05:48:05;;;;;;;17.58;12.77;;;2.80;83.70;;;;;;5072696;28;20066;-77
2020/12/12 05:50:30;;;;;;;18.75;13.60;;;2.90;83.60;;;;;;5054440;28;20039;-77
2020/12/12 05:52:56;;;;;;;18.10;13.20;;;2.80;83.60;;;;;;5072695;28;20030;-78
2020/12/12 05:55:25;;;;;;;20.00;13.90;;;2.80;83.70;;;;;;5072527;28;20035;-77
2020/12/12 05:57:52;;;;;;;20.85;13.68;;;2.90;83.60;;;;;;5072412;28;20013;-77
2020/12/12 06:00:23;;;;;;;19.35;13.77;;;2.90;83.60;;;;;;5072062;28;20013;-78
2020/12/12 06:03:05;;;;;;;;;;;2.90;83.40;;;;;;5072473;28;20028;-77
2020/12/12 06:05:32;;;;;;;18.50;13.50;;;2.90;83.20;;;;;;5054005;28;19962;-77
2020/12/12 06:08:04;;;;;;;19.50;13.60;;;2.90;83.40;;;;;;5072296;28;20409;-77
2020/12/12 06:10:31;;;;;;;18.05;13.27;;;2.90;83.40;;;;;;5072175;28;20436;-77
2020/12/12 06:13:05;;;;;;;18.63;14.00;;;3.00;83.50;;;;;;5054074;28;20068;-77
2020/12/12 06:15:41;;;;;;;18.35;13.27;;;2.90;83.30;;;;;;5053959;28;20020;-78
2020/12/12 06:18:37;;;;;;;19.33;13.18;;;3.00;83.40;;;;;;5052022;28;20032;-77
2020/12/12 06:21:09;;;;;;;17.08;12.85;;;3.00;83.20;;;;;;5052095;28;20067;-77
2020/12/12 06:23:39;;;;;;;17.40;12.52;;;3.00;83.20;;;;;;5051912;28;20541;-78
2020/12/12 06:26:06;;;;;;;17.98;13.00;;;2.90;83.30;;;;;;5052036;28;20020;-77
2020/12/12 06:28:39;;;;;;;17.02;12.85;;;2.90;83.40;;;;;;5051919;28;20021;-78
2020/12/12 06:31:06;;;;;;;16.98;12.85;;;2.90;83.40;;;;;;5051891;28;20033;-76
2020/12/12 06:33:47;;;;;;;18.85;13.85;;;2.90;83.40;;;;;;5052003;28;20025;-76
2020/12/12 06:36:26;;;;;;;18.50;13.77;;;2.90;83.40;;;;;;5051779;28;20522;-77
2020/12/12 06:39:19;;;;;;;19.30;13.57;;;2.90;83.40;;;;;;5051920;28;20029;-77
2020/12/12 06:41:45;;;;;;;15.80;12.40;;;2.90;83.60;;;;;;5051824;28;20083;-77
2020/12/12 06:44:11;;;;;;;18.90;12.88;;;2.90;83.70;;;;;;5052661;28;20028;-78
2020/12/12 06:47:04;;;;;;;17.73;12.80;;;2.90;83.70;;;;;;5055642;28;20386;-78
2020/12/12 06:49:30;;;;;;;16.02;12.45;;;2.90;83.60;;;;;;5051462;28;20091;-77
2020/12/12 06:51:56;;;;;;;18.52;13.85;;;2.90;83.70;;;;;;5073413;28;20032;-77
2020/12/12 06:54:22;;;;;;;15.35;11.98;;;2.90;83.80;;;;;;5075620;28;20482;-77
2020/12/12 06:56:49;;;;;;;17.58;12.93;;;2.90;83.80;;;;;;5075531;28;20415;-77
2020/12/12 06:59:35;;;;;;;22.13;13.15;;;2.90;83.70;;;;;;5075126;28;20028;-77
2020/12/12 07:02:07;;;;;;;17.67;12.85;;;2.90;83.70;;;;;;5075347;28;20029;-77
2020/12/12 07:04:35;;;;;;;17.05;12.75;;;3.00;83.60;;;;;;5075126;28;20067;-78
2020/12/12 07:07:07;;;;;;;18.27;12.98;;;3.00;83.80;;;;;;5057297;28;20027;-77
2020/12/12 07:09:34;;;;;;;20.70;13.43;;;2.90;83.90;;;;;;5074708;28;20115;-77
2020/12/12 07:12:00;;;;;;;18.10;12.95;;;3.00;83.90;;;;;;5075209;28;20047;-77
2020/12/12 07:14:26;;;;;;;16.88;13.30;;;2.90;83.90;;;;;;5075302;28;20024;-77
2020/12/12 07:16:56;;;;;;;19.63;13.43;;;3.00;84.00;;;;;;5074970;28;20378;-78
2020/12/12 07:19:39;;;;;;;14.65;11.75;;;3.00;84.00;;;;;;5075057;28;20016;-76
2020/12/12 07:22:10;;;;;;;16.67;12.23;;;3.00;83.90;;;;;;5074691;28;20033;-77
2020/12/12 07:24:37;;;;;;;15.60;11.77;;;3.00;83.90;;;;;;5075213;28;20028;-77
2020/12/12 07:27:04;;;;;;;15.50;11.52;;;3.00;83.90;;;;;;5074789;28;20040;-76
2020/12/12 07:29:31;;;;;;;15.23;11.57;;;3.10;83.70;;;;;;5074713;28;20029;-76
2020/12/12 07:31:57;;;;;;;13.95;11.63;;;3.10;83.50;;;;;;5074734;28;20036;-76
2020/12/12 07:34:25;;;;;;;15.10;11.50;;;3.20;83.40;;;;;;5056897;28;20028;-77
2020/12/12 07:37:05;;;;;;;17.70;11.25;;;3.20;83.20;;;;;;5074562;28;20028;-76
2020/12/12 07:39:39;;;;;;;15.77;11.98;;;3.20;83.10;;;;;;5074670;28;20041;-77
2020/12/12 07:42:08;;;;;;;15.82;11.75;;;3.30;83.00;;;;;;5074672;28;20490;-77
2020/12/12 07:44:35;;;;;;;15.77;11.90;;;3.30;82.80;;;;;;5074689;28;20082;-77
2020/12/12 07:47:04;;;;;;;14.88;11.10;;;3.30;82.50;;;;;;5074273;28;20538;-77
2020/12/12 07:49:31;;;;;;;15.15;11.27;;;3.40;82.60;;;;;;5073982;28;20024;-76
2020/12/12 07:51:59;;;;;;;14.85;10.73;;;3.40;82.30;;;;;;5074090;28;20029;-78
2020/12/12 07:54:31;;;;;;;14.60;11.05;;;3.50;82.00;;;;;;5074326;28;20020;-73
2020/12/12 07:56:57;;;;;;;15.13;11.30;;;3.50;82.20;;;;;;5073672;28;20090;-76
2020/12/12 07:59:23;;;;;;;15.65;12.05;;;3.50;82.30;;;;;;5074122;28;20464;-76
2020/12/12 08:01:49;;;;;;;17.27;12.60;;;3.60;82.00;;;;;;5073993;28;20021;-77
2020/12/12 08:04:23;;;;;;;16.70;11.82;;;3.60;82.00;;;;;;5073895;28;20044;-76
2020/12/12 08:06:49;;;;;;;15.90;11.43;;;3.60;81.80;;;;;;5074235;28;20540;-76
2020/12/12 08:09:20;;;;;;;18.70;11.35;;;3.70;81.70;;;;;;5074060;28;20028;-77
2020/12/12 08:11:54;;;;;;;14.82;11.40;;;3.80;81.60;;;;;;5073877;28;20120;-77
2020/12/12 08:14:19;;;;;;;16.52;11.63;;;3.80;81.50;;;;;;5057303;28;20443;-77
2020/12/12 08:16:47;;;;;;;13.45;10.73;;;3.80;81.10;;;;;;5073793;28;20099;-77
2020/12/12 08:19:13;;;;;;;19.13;12.10;;;3.80;81.30;;;;;;5074688;28;20013;-84
2020/12/12 08:21:38;;;;;;;16.60;11.07;;;3.80;81.30;;;;;;5074076;28;20032;-85
2020/12/12 08:24:06;;;;;;;16.00;12.02;;;3.90;81.10;;;;;;5073853;28;20016;-85
2020/12/12 08:26:34;;;;;;;18.38;13.07;;;3.90;80.90;;;;;;5056720;28;20044;-87
2020/12/12 08:29:02;;;;;;;18.00;13.23;;;4.00;80.70;;;;;;5073937;28;20025;-83
2020/12/12 08:31:39;;;;;;;17.38;12.85;;;4.00;80.70;;;;;;5074387;28;20499;-83
2020/12/12 08:34:05;;;;;;;21.73;14.30;;;4.10;80.40;;;;;;5073550;28;20024;-84
2020/12/12 08:36:31;;;;;;;53.92;26.75;;;4.20;80.10;;;;;;5051076;28;20021;-83
2020/12/12 08:39:04;;;;;;;35.20;20.10;;;4.30;79.90;;;;;;5053932;28;20098;-84
2020/12/12 08:41:36;;;;;;;74.38;35.03;;;4.20;79.90;;;;;;5053479;28;20078;-84
2020/12/12 08:44:02;;;;;;;;;;;4.30;80.10;;;;;;5053927;28;20090;-81
2020/12/12 08:46:27;;;;;;;18.95;11.88;;;4.30;79.60;;;;;;5035744;28;20011;-84
2020/12/12 08:48:54;;;;;;;62.50;29.05;;;4.30;79.60;;;;;;5053719;28;20436;-85
2020/12/12 08:51:27;;;;;;;17.15;11.65;;;4.40;79.70;;;;;;5053736;28;20032;-82
2020/12/12 08:53:53;;;;;;;18.15;12.25;;;4.50;79.20;;;;;;5053693;28;20597;-85
2020/12/12 08:56:22;;;;;;;13.93;10.70;;;4.50;79.20;;;;;;5053510;28;20029;-83
2020/12/12 08:59:03;;;;;;;41.55;21.23;;;4.60;78.90;;;;;;5053184;28;20031;-81
2020/12/12 09:01:28;;;;;;;21.50;13.70;;;4.60;78.90;;;;;;5053038;28;20071;-83
2020/12/12 09:03:54;;;;;;;24.80;15.90;;;4.50;79.10;;;;;;5052858;28;20028;-83
2020/12/12 09:06:20;;;;;;;32.22;19.70;;;4.50;79.50;;;;;;5034997;28;20431;-80
2020/12/12 09:08:46;;;;;;;33.88;19.98;;;4.60;79.20;;;;;;5052071;28;20031;-82
2020/12/12 09:11:17;;;;;;;25.67;16.17;;;4.50;79.10;;;;;;5034884;28;20399;-80
2020/12/12 09:13:43;;;;;;;21.90;15.48;;;4.50;79.30;;;;;;5052856;28;20176;-76
2020/12/12 09:16:09;;;;;;;21.30;15.13;;;4.50;79.30;;;;;;5056012;28;20108;-77
2020/12/12 09:18:45;;;;;;;33.50;20.70;;;4.50;79.00;;;;;;5072562;28;20491;-77
2020/12/12 09:21:12;;;;;;;34.53;21.27;;;4.50;79.70;;;;;;5072629;28;20022;-77
2020/12/12 09:23:38;;;;;;;27.48;18.40;;;4.60;79.40;;;;;;5054517;28;20020;-77
2020/12/12 09:26:04;;;;;;;30.10;19.50;;;4.80;79.00;;;;;;5072490;28;20028;-76
2020/12/12 09:28:30;;;;;;;22.80;16.35;;;4.90;79.10;;;;;;5072529;28;20055;-77
2020/12/12 09:30:56;;;;;;;34.15;19.20;;;4.90;78.80;;;;;;5072843;28;20056;-84
2020/12/12 09:33:22;;;;;;;22.02;15.63;;;4.80;79.00;;;;;;5054106;28;20116;-84
2020/12/12 09:35:48;;;;;;;32.40;20.08;;;5.00;79.10;;;;;;5055572;28;20467;-81
2020/12/12 09:38:13;;;;;;;27.50;17.17;;;5.10;79.60;;;;;;5074514;28;20051;-82
2020/12/12 09:40:39;;;;;;;25.40;17.13;;;5.30;78.80;;;;;;5072665;28;20548;-81
2020/12/12 09:43:05;;;;;;;22.10;16.30;;;5.40;78.20;;;;;;5054261;28;20029;-81
2020/12/12 09:45:30;;;;;;;22.45;15.63;;;5.50;78.50;;;;;;5072119;28;20021;-83
2020/12/12 09:47:56;;;;;;;22.42;16.27;;;5.60;77.20;;;;;;5072227;28;20100;-84
2020/12/12 09:50:33;;;;;;;22.33;15.95;;;5.60;78.30;;;;;;5072747;28;20043;-82
2020/12/12 09:53:03;;;;;;;21.98;15.55;;;5.80;78.40;;;;;;5072340;28;20379;-79
2020/12/12 09:55:29;;;;;;;21.95;16.27;;;5.80;78.10;;;;;;5072266;28;20021;-83
2020/12/12 09:57:56;;;;;;;22.42;16.27;;;5.80;76.20;;;;;;5072298;28;20029;-78
2020/12/12 10:00:22;;;;;;;24.45;16.35;;;5.80;77.20;;;;;;5070657;28;20411;-79
2020/12/12 10:02:48;;;;;;;26.75;17.85;;;5.80;79.10;;;;;;5069352;28;20475;-79
2020/12/12 10:05:14;;;;;;;27.02;16.25;;;5.90;78.60;;;;;;5069748;28;20143;-81
2020/12/12 10:07:39;;;;;;;24.30;16.38;;;6.00;77.20;;;;;;5070069;28;20430;-78
2020/12/12 10:10:05;;;;;;;22.88;15.68;;;5.90;78.80;;;;;;5053483;28;20039;-83
2020/12/12 10:12:31;;;;;;;23.83;17.08;;;5.80;78.80;;;;;;5053955;28;20031;-81
2020/12/12 10:14:56;;;;;;;21.13;15.60;;;5.80;79.20;;;;;;5068615;28;20032;-79
2020/12/12 10:17:22;;;;;;;21.25;15.10;;;5.90;79.00;;;;;;5025981;28;20498;-85
2020/12/12 10:19:48;;;;;;;22.58;15.38;;;6.00;78.80;;;;;;5045250;28;20490;-84
2020/12/12 10:22:13;;;;;;;20.33;14.65;;;6.00;78.10;;;;;;5078808;28;20036;-85
2020/12/12 10:24:39;;;;;;;295.25;161.15;;;6.10;78.10;;;;;;5078073;28;20029;-82
2020/12/12 10:27:05;;;;;;;23.05;16.00;;;6.20;78.20;;;;;;5071174;28;20547;-79
2020/12/12 10:29:33;;;;;;;20.90;14.90;;;6.20;76.20;;;;;;5075333;28;20070;-78
2020/12/12 10:32:00;;;;;;;18.50;13.20;;;6.20;77.00;;;;;;5076547;28;20410;-82
2020/12/12 10:34:26;;;;;;;20.67;13.80;;;6.20;75.80;;;;;;5076093;28;20024;-81
2020/12/12 10:36:52;;;;;;;19.25;13.95;;;6.40;76.00;;;;;;5076033;28;20031;-79
2020/12/12 10:39:26;;;;;;;19.95;13.80;;;6.40;76.80;;;;;;5075822;28;20025;-78
2020/12/12 10:41:52;;;;;;;18.10;13.43;;;6.70;76.10;;;;;;5058003;28;20024;-79
2020/12/12 10:44:17;;;;;;;18.00;12.80;;;7.00;74.50;;;;;;5075736;28;20406;-79
2020/12/12 10:46:43;;;;;;;15.73;11.05;;;7.40;74.80;;;;;;5075673;28;20020;-78
2020/12/12 10:49:09;;;;;;;15.30;10.25;;;7.60;72.00;;;;;;5075592;28;20024;-78
2020/12/12 10:51:34;;;;;;;12.77;9.73;;;7.80;71.10;;;;;;5075347;28;20364;-78
2020/12/12 10:54:00;;;;;;;576.30;349.75;;;8.10;69.30;;;;;;5075524;28;20369;-78
2020/12/12 10:56:26;;;;;;;292.48;161.88;;;8.10;70.60;;;;;;5075354;28;20103;-83
2020/12/12 10:58:51;;;;;;;14.68;10.25;;;7.90;69.70;;;;;;5080938;28;20432;-90
2020/12/12 11:01:17;;;;;;;15.38;10.68;;;8.00;68.00;;;;;;5078774;28;20428;-91
2020/12/12 11:03:44;;;;;;;9.93;8.25;;;8.10;68.00;;;;;;5082875;28;20128;-89
2020/12/12 11:06:13;;;;;;;10.98;8.68;;;8.10;67.90;;;;;;5063040;22;20045;-78
2020/12/12 11:08:38;;;;;;;12.38;9.27;;;8.20;68.80;;;;;;5055103;28;20021;-79
2020/12/12 11:11:04;;;;;;;12.85;9.07;;;8.30;66.90;;;;;;5054742;28;20037;-77
2020/12/12 11:13:30;;;;;;;12.70;9.48;;;8.10;66.30;;;;;;5038072;28;20102;-86
2020/12/12 11:15:55;;;;;;;13.02;9.65;;;8.00;67.50;;;;;;5037050;28;20033;-85
2020/12/12 11:18:21;;;;;;;11.00;8.10;;;7.90;67.30;;;;;;5055303;28;20017;-75
2020/12/12 11:20:47;;;;;;;11.68;8.75;;;7.70;66.10;;;;;;5056520;28;20036;-86
2020/12/12 11:23:13;;;;;;;12.40;9.23;;;7.50;66.70;;;;;;5057006;28;20049;-86
2020/12/12 11:25:39;;;;;;;10.57;8.15;;;7.20;67.30;;;;;;5054566;28;20071;-72
2020/12/12 11:28:05;;;;;;;11.90;8.98;;;6.90;67.50;;;;;;5054683;28;20043;-73
2020/12/12 11:30:30;;;;;;;12.32;9.10;;;6.70;69.00;;;;;;5053855;28;20037;-73
2020/12/12 11:32:57;;;;;;;15.63;9.63;;;6.70;69.30;;;;;;5054535;28;20060;-73
2020/12/12 11:36:11;;;;;;;12.32;9.02;;;6.60;69.10;;;;;;5054622;28;20021;-72
2020/12/12 11:38:40;;;;;;;13.00;9.93;;;6.60;69.50;;;;;;5043642;28;20036;-79
2020/12/12 11:48:51;;;;;;;13.60;10.38;;;6.70;69.20;;;;;;5055369;28;20108;-86
2020/12/12 11:51:17;;;;;;;15.70;10.23;;;6.60;70.20;;;;;;5054278;28;20064;-71
2020/12/12 11:53:42;;;;;;;12.18;8.52;;;6.70;69.60;;;;;;5054482;28;20059;-70
2020/12/12 11:56:08;;;;;;;11.93;8.60;;;6.80;69.10;;;;;;5054169;28;20036;-78
2020/12/12 11:58:34;;;;;;;10.57;7.82;;;6.90;69.10;;;;;;5054356;28;20025;-71
2020/12/12 12:01:00;;;;;;;16.27;10.35;;;7.00;68.90;;;;;;5054207;28;20025;-71
2020/12/12 12:03:26;;;;;;;14.73;9.75;;;7.00;69.30;;;;;;5053841;28;20124;-72
2020/12/12 12:05:52;;;;;;;12.02;9.10;;;7.00;68.50;;;;;;5053946;28;20045;-70
2020/12/12 12:08:42;;;;;;;14.77;9.63;;;7.00;68.60;;;;;;5054089;28;20100;-72
2020/12/12 12:13:56;;;;;;;15.15;10.18;;;7.00;69.10;;;;;;5054059;28;20475;-71
2020/12/12 12:16:21;;;;;;;13.30;9.40;;;7.00;68.60;;;;;;5053865;28;20023;-71
2020/12/12 12:18:48;;;;;;;14.27;8.60;;;7.10;68.50;;;;;;5053884;28;20126;-71
2020/12/12 12:21:14;;;;;;;14.65;9.40;;;7.00;68.40;;;;;;5053838;28;20033;-70
2020/12/12 12:23:40;;;;;;;13.85;9.35;;;6.90;68.80;;;;;;5053685;28;20071;-71
2020/12/12 12:26:05;;;;;;;11.15;8.18;;;7.00;69.40;;;;;;5053633;28;20032;-72
2020/12/12 12:28:31;;;;;;;14.18;7.90;;;7.00;68.40;;;;;;5032097;28;20091;-71
2020/12/12 12:30:57;;;;;;;12.55;7.88;;;6.90;68.40;;;;;;5032223;28;20496;-71
2020/12/12 12:33:22;;;;;;;11.50;8.43;;;6.90;68.70;;;;;;5015857;28;20071;-72
2020/12/12 12:35:48;;;;;;;12.23;8.02;;;6.80;69.20;;;;;;5033446;28;20109;-71
2020/12/12 12:38:14;;;;;;;15.50;9.05;;;7.00;69.10;;;;;;5015837;28;20028;-71
2020/12/12 12:40:40;;;;;;;11.88;8.30;;;7.00;68.20;;;;;;5033631;28;20500;-70
2020/12/12 12:43:06;;;;;;;10.68;7.35;;;6.90;68.20;;;;;;5033266;28;20135;-71
2020/12/12 12:45:32;;;;;;;9.77;6.50;;;7.00;68.60;;;;;;5015894;28;20049;-71
2020/12/12 12:47:58;;;;;;;9.93;6.45;;;6.90;68.50;;;;;;5033385;28;20067;-71
2020/12/12 12:50:33;;;;;;;9.90;6.88;;;6.80;69.20;;;;;;5033349;28;20563;-71
2020/12/12 12:53:01;;;;;;;10.43;6.50;;;6.70;69.40;;;;;;5032971;28;20030;-72